sensor_id;sensor_type;location;lat;lon;timestamp;P1;durP1;ratioP1;P2;durP2;ratioP2
9222;SDS011;7557;51.698;3.942;2022-07-29T00:01:50;2.78;;;1.55;;
9222;SDS011;7557;51.698;3.942;2022-07-29T00:04:18;1.67;;;1.35;;
9222;SDS011;7557;51.698;3.942;2022-07-29T00:06:45;2.03;;;1.60;;
9222;SDS011;7557;51.698;3.942;2022-07-29T00:09:14;1.65;;;1.55;;
9222;SDS011;7557;51.698;3.942;2022-07-29T00:11:41;1.70;;;1.60;;
9222;SDS011;7557;51.698;3.942;2022-07-29T00:14:08;2.08;;;1.48;;
9222;SDS011;7557;51.698;3.942;2022-07-29T00:16:36;1.45;;;1.42;;
9222;SDS011;7557;51.698;3.942;2022-07-29T00:19:03;1.77;;;1.58;;
9222;SDS011;7557;51.698;3.942;2022-07-29T00:21:30;1.80;;;1.70;;
9222;SDS011;7557;51.698;3.942;2022-07-29T00:23:57;2.22;;;2.03;;
9222;SDS011;7557;51.698;3.942;2022-07-29T00:26:26;1.83;;;1.73;;
9222;SDS011;7557;51.698;3.942;2022-07-29T00:28:57;4.00;;;1.83;;
9222;SDS011;7557;51.698;3.942;2022-07-29T00:31:24;2.60;;;1.92;;
9222;SDS011;7557;51.698;3.942;2022-07-29T00:33:55;5.43;;;1.88;;
9222;SDS011;7557;51.698;3.942;2022-07-29T00:36:22;2.25;;;1.50;;
9222;SDS011;7557;51.698;3.942;2022-07-29T00:38:48;2.20;;;1.92;;
9222;SDS011;7557;51.698;3.942;2022-07-29T00:41:16;1.38;;;1.35;;
9222;SDS011;7557;51.698;3.942;2022-07-29T00:43:45;2.85;;;1.85;;
9222;SDS011;7557;51.698;3.942;2022-07-29T00:46:12;3.33;;;1.88;;
9222;SDS011;7557;51.698;3.942;2022-07-29T00:48:40;2.58;;;1.85;;
9222;SDS011;7557;51.698;3.942;2022-07-29T00:51:07;4.10;;;1.80;;
9222;SDS011;7557;51.698;3.942;2022-07-29T00:56:57;2.05;;;1.88;;
9222;SDS011;7557;51.698;3.942;2022-07-29T00:59:27;1.70;;;1.70;;
9222;SDS011;7557;51.698;3.942;2022-07-29T01:01:54;1.60;;;1.50;;
9222;SDS011;7557;51.698;3.942;2022-07-29T01:04:21;2.20;;;2.10;;
9222;SDS011;7557;51.698;3.942;2022-07-29T01:06:49;3.60;;;2.03;;
9222;SDS011;7557;51.698;3.942;2022-07-29T01:09:17;2.38;;;2.10;;
9222;SDS011;7557;51.698;3.942;2022-07-29T01:11:45;2.58;;;1.85;;
9222;SDS011;7557;51.698;3.942;2022-07-29T01:14:13;1.42;;;1.33;;
9222;SDS011;7557;51.698;3.942;2022-07-29T01:16:45;2.75;;;1.88;;
9222;SDS011;7557;51.698;3.942;2022-07-29T01:19:22;1.55;;;1.50;;
9222;SDS011;7557;51.698;3.942;2022-07-29T01:22:14;2.17;;;1.70;;
9222;SDS011;7557;51.698;3.942;2022-07-29T01:25:02;1.65;;;1.65;;
9222;SDS011;7557;51.698;3.942;2022-07-29T01:27:44;2.92;;;1.90;;
9222;SDS011;7557;51.698;3.942;2022-07-29T01:30:25;4.00;;;2.20;;
9222;SDS011;7557;51.698;3.942;2022-07-29T01:32:54;1.80;;;1.70;;
9222;SDS011;7557;51.698;3.942;2022-07-29T01:35:26;1.92;;;1.83;;
9222;SDS011;7557;51.698;3.942;2022-07-29T01:38:01;2.08;;;1.77;;
9222;SDS011;7557;51.698;3.942;2022-07-29T01:40:34;1.98;;;1.73;;
9222;SDS011;7557;51.698;3.942;2022-07-29T01:43:09;2.00;;;1.42;;
9222;SDS011;7557;51.698;3.942;2022-07-29T01:45:40;2.17;;;1.30;;
9222;SDS011;7557;51.698;3.942;2022-07-29T01:48:12;3.97;;;2.15;;
9222;SDS011;7557;51.698;3.942;2022-07-29T01:50:45;1.48;;;1.48;;
9222;SDS011;7557;51.698;3.942;2022-07-29T01:53:17;1.90;;;1.80;;
9222;SDS011;7557;51.698;3.942;2022-07-29T01:55:51;2.65;;;2.20;;
9222;SDS011;7557;51.698;3.942;2022-07-29T01:58:21;2.50;;;1.45;;
9222;SDS011;7557;51.698;3.942;2022-07-29T02:00:50;4.75;;;2.13;;
9222;SDS011;7557;51.698;3.942;2022-07-29T02:03:18;2.95;;;1.83;;
9222;SDS011;7557;51.698;3.942;2022-07-29T02:05:47;1.98;;;1.77;;
9222;SDS011;7557;51.698;3.942;2022-07-29T02:08:16;1.73;;;1.60;;
9222;SDS011;7557;51.698;3.942;2022-07-29T02:10:46;1.63;;;1.52;;
9222;SDS011;7557;51.698;3.942;2022-07-29T02:13:14;2.15;;;2.05;;
9222;SDS011;7557;51.698;3.942;2022-07-29T02:15:44;2.38;;;1.80;;
9222;SDS011;7557;51.698;3.942;2022-07-29T02:18:16;1.92;;;1.80;;
9222;SDS011;7557;51.698;3.942;2022-07-29T02:20:45;2.05;;;1.67;;
9222;SDS011;7557;51.698;3.942;2022-07-29T02:23:16;1.90;;;1.80;;
9222;SDS011;7557;51.698;3.942;2022-07-29T02:25:46;2.55;;;1.88;;
9222;SDS011;7557;51.698;3.942;2022-07-29T02:28:15;2.17;;;1.35;;
9222;SDS011;7557;51.698;3.942;2022-07-29T02:30:45;2.65;;;1.83;;
9222;SDS011;7557;51.698;3.942;2022-07-29T02:33:14;2.25;;;2.08;;
9222;SDS011;7557;51.698;3.942;2022-07-29T02:35:45;1.80;;;1.70;;
9222;SDS011;7557;51.698;3.942;2022-07-29T02:38:14;1.80;;;1.70;;
9222;SDS011;7557;51.698;3.942;2022-07-29T02:41:00;2.15;;;1.88;;
9222;SDS011;7557;51.698;3.942;2022-07-29T02:43:30;2.05;;;1.70;;
9222;SDS011;7557;51.698;3.942;2022-07-29T02:45:59;1.92;;;1.83;;
9222;SDS011;7557;51.698;3.942;2022-07-29T02:48:32;1.80;;;1.70;;
9222;SDS011;7557;51.698;3.942;2022-07-29T02:51:05;3.67;;;2.22;;
9222;SDS011;7557;51.698;3.942;2022-07-29T02:53:35;4.82;;;2.03;;
9222;SDS011;7557;51.698;3.942;2022-07-29T02:56:06;2.15;;;2.05;;
9222;SDS011;7557;51.698;3.942;2022-07-29T02:58:40;4.65;;;2.00;;
9222;SDS011;7557;51.698;3.942;2022-07-29T03:01:13;2.22;;;2.08;;
9222;SDS011;7557;51.698;3.942;2022-07-29T03:03:44;1.55;;;1.50;;
9222;SDS011;7557;51.698;3.942;2022-07-29T03:06:13;2.08;;;1.90;;
9222;SDS011;7557;51.698;3.942;2022-07-29T03:08:43;5.30;;;2.40;;
9222;SDS011;7557;51.698;3.942;2022-07-29T03:11:11;2.28;;;2.00;;
9222;SDS011;7557;51.698;3.942;2022-07-29T03:13:39;2.13;;;2.03;;
9222;SDS011;7557;51.698;3.942;2022-07-29T03:16:07;3.05;;;2.15;;
9222;SDS011;7557;51.698;3.942;2022-07-29T03:18:35;4.72;;;2.22;;
9222;SDS011;7557;51.698;3.942;2022-07-29T03:21:04;2.35;;;2.20;;
9222;SDS011;7557;51.698;3.942;2022-07-29T03:23:32;2.00;;;1.90;;
9222;SDS011;7557;51.698;3.942;2022-07-29T03:25:59;5.20;;;1.95;;
9222;SDS011;7557;51.698;3.942;2022-07-29T03:28:26;2.85;;;2.17;;
9222;SDS011;7557;51.698;3.942;2022-07-29T03:30:53;2.10;;;1.73;;
9222;SDS011;7557;51.698;3.942;2022-07-29T03:33:21;3.17;;;2.20;;
9222;SDS011;7557;51.698;3.942;2022-07-29T03:35:48;3.42;;;1.80;;
9222;SDS011;7557;51.698;3.942;2022-07-29T03:38:17;2.60;;;1.98;;
9222;SDS011;7557;51.698;3.942;2022-07-29T03:40:46;2.42;;;2.17;;
9222;SDS011;7557;51.698;3.942;2022-07-29T03:43:17;3.33;;;2.72;;
9222;SDS011;7557;51.698;3.942;2022-07-29T03:45:47;4.53;;;2.50;;
9222;SDS011;7557;51.698;3.942;2022-07-29T03:48:17;2.40;;;2.20;;
9222;SDS011;7557;51.698;3.942;2022-07-29T03:50:48;2.03;;;1.85;;
9222;SDS011;7557;51.698;3.942;2022-07-29T03:53:18;3.38;;;2.15;;
9222;SDS011;7557;51.698;3.942;2022-07-29T03:55:45;4.03;;;2.53;;
9222;SDS011;7557;51.698;3.942;2022-07-29T03:58:16;4.22;;;2.20;;
9222;SDS011;7557;51.698;3.942;2022-07-29T04:00:45;3.22;;;2.35;;
9222;SDS011;7557;51.698;3.942;2022-07-29T04:03:13;3.08;;;2.42;;
9222;SDS011;7557;51.698;3.942;2022-07-29T04:05:40;4.43;;;2.20;;
9222;SDS011;7557;51.698;3.942;2022-07-29T04:08:07;2.50;;;2.30;;
9222;SDS011;7557;51.698;3.942;2022-07-29T04:10:36;2.88;;;2.75;;
9222;SDS011;7557;51.698;3.942;2022-07-29T04:13:04;2.60;;;2.40;;
9222;SDS011;7557;51.698;3.942;2022-07-29T04:15:31;2.67;;;2.47;;
9222;SDS011;7557;51.698;3.942;2022-07-29T04:17:58;2.83;;;2.58;;
9222;SDS011;7557;51.698;3.942;2022-07-29T04:20:26;2.55;;;2.33;;
9222;SDS011;7557;51.698;3.942;2022-07-29T04:22:53;3.05;;;2.70;;
9222;SDS011;7557;51.698;3.942;2022-07-29T04:25:20;2.58;;;2.42;;
9222;SDS011;7557;51.698;3.942;2022-07-29T04:27:49;2.50;;;2.30;;
9222;SDS011;7557;51.698;3.942;2022-07-29T04:30:29;4.72;;;2.75;;
9222;SDS011;7557;51.698;3.942;2022-07-29T04:32:56;2.45;;;2.28;;
9222;SDS011;7557;51.698;3.942;2022-07-29T04:35:24;2.90;;;2.58;;
9222;SDS011;7557;51.698;3.942;2022-07-29T04:37:51;4.97;;;3.03;;
9222;SDS011;7557;51.698;3.942;2022-07-29T04:40:18;3.15;;;2.88;;
9222;SDS011;7557;51.698;3.942;2022-07-29T04:42:46;2.75;;;2.55;;
9222;SDS011;7557;51.698;3.942;2022-07-29T04:45:14;2.75;;;2.55;;
9222;SDS011;7557;51.698;3.942;2022-07-29T04:47:42;2.70;;;2.50;;
9222;SDS011;7557;51.698;3.942;2022-07-29T04:50:09;3.65;;;2.38;;
9222;SDS011;7557;51.698;3.942;2022-07-29T04:52:37;3.80;;;2.50;;
9222;SDS011;7557;51.698;3.942;2022-07-29T04:55:05;2.60;;;2.13;;
9222;SDS011;7557;51.698;3.942;2022-07-29T04:57:32;2.92;;;2.75;;
9222;SDS011;7557;51.698;3.942;2022-07-29T04:59:59;2.97;;;2.80;;
9222;SDS011;7557;51.698;3.942;2022-07-29T05:02:28;2.75;;;2.53;;
9222;SDS011;7557;51.698;3.942;2022-07-29T05:04:55;2.42;;;2.30;;
9222;SDS011;7557;51.698;3.942;2022-07-29T05:07:22;3.53;;;2.55;;
9222;SDS011;7557;51.698;3.942;2022-07-29T05:09:49;3.00;;;2.90;;
9222;SDS011;7557;51.698;3.942;2022-07-29T05:12:18;3.22;;;2.88;;
9222;SDS011;7557;51.698;3.942;2022-07-29T05:14:45;2.60;;;2.45;;
9222;SDS011;7557;51.698;3.942;2022-07-29T05:17:12;3.45;;;3.20;;
9222;SDS011;7557;51.698;3.942;2022-07-29T05:19:40;3.05;;;2.75;;
9222;SDS011;7557;51.698;3.942;2022-07-29T05:22:07;3.28;;;3.00;;
9222;SDS011;7557;51.698;3.942;2022-07-29T05:24:35;3.13;;;2.80;;
9222;SDS011;7557;51.698;3.942;2022-07-29T05:27:02;3.78;;;2.67;;
9222;SDS011;7557;51.698;3.942;2022-07-29T05:29:29;2.60;;;2.40;;
9222;SDS011;7557;51.698;3.942;2022-07-29T05:31:56;2.35;;;2.17;;
9222;SDS011;7557;51.698;3.942;2022-07-29T05:34:23;3.15;;;2.85;;
9222;SDS011;7557;51.698;3.942;2022-07-29T05:36:52;2.47;;;2.28;;
9222;SDS011;7557;51.698;3.942;2022-07-29T05:39:19;2.70;;;2.50;;
9222;SDS011;7557;51.698;3.942;2022-07-29T05:41:47;4.82;;;2.63;;
9222;SDS011;7557;51.698;3.942;2022-07-29T05:44:14;2.63;;;2.42;;
9222;SDS011;7557;51.698;3.942;2022-07-29T05:46:41;4.50;;;3.00;;
9222;SDS011;7557;51.698;3.942;2022-07-29T05:49:08;2.55;;;2.45;;
9222;SDS011;7557;51.698;3.942;2022-07-29T05:51:35;3.17;;;2.50;;
9222;SDS011;7557;51.698;3.942;2022-07-29T05:54:04;2.78;;;2.63;;
9222;SDS011;7557;51.698;3.942;2022-07-29T05:56:31;2.97;;;2.55;;
9222;SDS011;7557;51.698;3.942;2022-07-29T05:58:58;3.67;;;2.53;;
9222;SDS011;7557;51.698;3.942;2022-07-29T06:01:25;2.65;;;2.40;;
9222;SDS011;7557;51.698;3.942;2022-07-29T06:03:53;2.50;;;2.30;;
9222;SDS011;7557;51.698;3.942;2022-07-29T06:06:20;8.45;;;3.33;;
9222;SDS011;7557;51.698;3.942;2022-07-29T06:08:47;12.82;;;4.32;;
9222;SDS011;7557;51.698;3.942;2022-07-29T06:11:16;2.90;;;2.40;;
9222;SDS011;7557;51.698;3.942;2022-07-29T06:13:43;2.95;;;2.75;;
9222;SDS011;7557;51.698;3.942;2022-07-29T06:16:10;2.85;;;2.50;;
9222;SDS011;7557;51.698;3.942;2022-07-29T06:18:37;2.35;;;2.15;;
9222;SDS011;7557;51.698;3.942;2022-07-29T06:21:06;3.45;;;2.90;;
9222;SDS011;7557;51.698;3.942;2022-07-29T06:23:35;2.95;;;2.42;;
9222;SDS011;7557;51.698;3.942;2022-07-29T06:26:03;2.95;;;2.75;;
9222;SDS011;7557;51.698;3.942;2022-07-29T06:28:33;3.60;;;2.80;;
9222;SDS011;7557;51.698;3.942;2022-07-29T06:31:00;4.60;;;2.92;;
9222;SDS011;7557;51.698;3.942;2022-07-29T06:33:27;2.47;;;2.38;;
9222;SDS011;7557;51.698;3.942;2022-07-29T06:35:54;3.00;;;2.70;;
9222;SDS011;7557;51.698;3.942;2022-07-29T06:38:21;2.83;;;2.63;;
9222;SDS011;7557;51.698;3.942;2022-07-29T06:40:48;3.15;;;2.85;;
9222;SDS011;7557;51.698;3.942;2022-07-29T06:43:29;3.10;;;2.83;;
9222;SDS011;7557;51.698;3.942;2022-07-29T06:46:03;3.25;;;2.95;;
9222;SDS011;7557;51.698;3.942;2022-07-29T06:48:32;3.28;;;2.92;;
9222;SDS011;7557;51.698;3.942;2022-07-29T06:51:01;6.75;;;2.78;;
9222;SDS011;7557;51.698;3.942;2022-07-29T06:53:29;4.53;;;2.53;;
9222;SDS011;7557;51.698;3.942;2022-07-29T06:55:56;3.15;;;2.80;;
9222;SDS011;7557;51.698;3.942;2022-07-29T06:58:25;3.28;;;3.05;;
9222;SDS011;7557;51.698;3.942;2022-07-29T07:00:52;2.55;;;2.42;;
9222;SDS011;7557;51.698;3.942;2022-07-29T07:03:22;2.92;;;2.75;;
9222;SDS011;7557;51.698;3.942;2022-07-29T07:05:49;2.92;;;2.72;;
9222;SDS011;7557;51.698;3.942;2022-07-29T07:08:18;2.58;;;2.40;;
9222;SDS011;7557;51.698;3.942;2022-07-29T07:10:46;4.45;;;2.47;;
9222;SDS011;7557;51.698;3.942;2022-07-29T07:13:13;3.53;;;2.78;;
9222;SDS011;7557;51.698;3.942;2022-07-29T07:15:42;4.03;;;2.33;;
9222;SDS011;7557;51.698;3.942;2022-07-29T07:18:10;3.42;;;3.13;;
9222;SDS011;7557;51.698;3.942;2022-07-29T07:20:38;3.75;;;2.90;;
9222;SDS011;7557;51.698;3.942;2022-07-29T07:23:06;2.65;;;2.42;;
9222;SDS011;7557;51.698;3.942;2022-07-29T07:25:33;5.13;;;2.80;;
9222;SDS011;7557;51.698;3.942;2022-07-29T07:28:00;2.88;;;2.50;;
9222;SDS011;7557;51.698;3.942;2022-07-29T07:30:27;3.97;;;2.85;;
9222;SDS011;7557;51.698;3.942;2022-07-29T07:32:55;3.25;;;2.38;;
9222;SDS011;7557;51.698;3.942;2022-07-29T07:35:22;3.92;;;2.85;;
9222;SDS011;7557;51.698;3.942;2022-07-29T07:37:50;4.97;;;3.10;;
9222;SDS011;7557;51.698;3.942;2022-07-29T07:40:17;3.40;;;2.50;;
9222;SDS011;7557;51.698;3.942;2022-07-29T07:42:45;2.85;;;2.60;;
9222;SDS011;7557;51.698;3.942;2022-07-29T07:45:12;2.95;;;2.70;;
9222;SDS011;7557;51.698;3.942;2022-07-29T07:47:39;3.47;;;3.17;;
9222;SDS011;7557;51.698;3.942;2022-07-29T07:50:07;2.28;;;2.08;;
9222;SDS011;7557;51.698;3.942;2022-07-29T07:52:45;6.03;;;2.28;;
9222;SDS011;7557;51.698;3.942;2022-07-29T07:55:15;2.80;;;2.33;;
9222;SDS011;7557;51.698;3.942;2022-07-29T07:57:42;5.00;;;2.60;;
9222;SDS011;7557;51.698;3.942;2022-07-29T08:00:10;2.92;;;2.60;;
9222;SDS011;7557;51.698;3.942;2022-07-29T08:02:38;3.63;;;2.55;;
9222;SDS011;7557;51.698;3.942;2022-07-29T08:05:06;3.58;;;2.55;;
9222;SDS011;7557;51.698;3.942;2022-07-29T08:07:34;2.90;;;2.70;;
9222;SDS011;7557;51.698;3.942;2022-07-29T08:10:01;3.67;;;2.92;;
9222;SDS011;7557;51.698;3.942;2022-07-29T08:12:30;2.80;;;2.67;;
9222;SDS011;7557;51.698;3.942;2022-07-29T08:14:57;3.78;;;2.88;;
9222;SDS011;7557;51.698;3.942;2022-07-29T08:17:24;2.58;;;2.47;;
9222;SDS011;7557;51.698;3.942;2022-07-29T08:19:52;3.08;;;2.80;;
9222;SDS011;7557;51.698;3.942;2022-07-29T08:22:19;3.80;;;3.08;;
9222;SDS011;7557;51.698;3.942;2022-07-29T08:24:46;3.90;;;2.80;;
9222;SDS011;7557;51.698;3.942;2022-07-29T08:27:19;3.35;;;2.95;;
9222;SDS011;7557;51.698;3.942;2022-07-29T08:29:48;3.42;;;2.67;;
9222;SDS011;7557;51.698;3.942;2022-07-29T08:32:15;2.22;;;2.10;;
9222;SDS011;7557;51.698;3.942;2022-07-29T08:34:42;3.42;;;2.47;;
9222;SDS011;7557;51.698;3.942;2022-07-29T08:37:11;3.15;;;2.90;;
9222;SDS011;7557;51.698;3.942;2022-07-29T08:39:38;2.88;;;2.47;;
9222;SDS011;7557;51.698;3.942;2022-07-29T08:42:06;3.08;;;2.78;;
9222;SDS011;7557;51.698;3.942;2022-07-29T08:44:34;2.92;;;2.72;;
9222;SDS011;7557;51.698;3.942;2022-07-29T08:47:04;2.72;;;2.47;;
9222;SDS011;7557;51.698;3.942;2022-07-29T08:49:32;4.15;;;3.53;;
9222;SDS011;7557;51.698;3.942;2022-07-29T08:52:01;4.22;;;3.30;;
9222;SDS011;7557;51.698;3.942;2022-07-29T08:54:29;3.80;;;3.50;;
9222;SDS011;7557;51.698;3.942;2022-07-29T08:56:56;2.85;;;2.75;;
9222;SDS011;7557;51.698;3.942;2022-07-29T08:59:25;3.33;;;3.03;;
9222;SDS011;7557;51.698;3.942;2022-07-29T09:01:53;6.28;;;3.67;;
9222;SDS011;7557;51.698;3.942;2022-07-29T09:04:26;5.32;;;3.58;;
9222;SDS011;7557;51.698;3.942;2022-07-29T09:06:57;3.85;;;3.40;;
9222;SDS011;7557;51.698;3.942;2022-07-29T09:09:27;3.38;;;2.60;;
9222;SDS011;7557;51.698;3.942;2022-07-29T09:11:54;4.05;;;3.38;;
9222;SDS011;7557;51.698;3.942;2022-07-29T09:14:21;4.28;;;3.88;;
9222;SDS011;7557;51.698;3.942;2022-07-29T09:16:52;5.03;;;3.80;;
9222;SDS011;7557;51.698;3.942;2022-07-29T09:19:26;3.15;;;2.58;;
9222;SDS011;7557;51.698;3.942;2022-07-29T09:21:55;5.35;;;2.83;;
9222;SDS011;7557;51.698;3.942;2022-07-29T09:24:22;3.20;;;2.70;;
9222;SDS011;7557;51.698;3.942;2022-07-29T09:26:50;3.50;;;3.00;;
9222;SDS011;7557;51.698;3.942;2022-07-29T09:29:18;3.33;;;2.85;;
9222;SDS011;7557;51.698;3.942;2022-07-29T09:31:47;4.32;;;3.60;;
9222;SDS011;7557;51.698;3.942;2022-07-29T09:34:15;2.78;;;2.50;;
9222;SDS011;7557;51.698;3.942;2022-07-29T09:36:46;3.72;;;2.70;;
9222;SDS011;7557;51.698;3.942;2022-07-29T09:39:15;3.72;;;3.10;;
9222;SDS011;7557;51.698;3.942;2022-07-29T09:41:53;4.50;;;4.10;;
9222;SDS011;7557;51.698;3.942;2022-07-29T09:44:21;5.63;;;3.00;;
9222;SDS011;7557;51.698;3.942;2022-07-29T09:46:55;5.47;;;3.95;;
9222;SDS011;7557;51.698;3.942;2022-07-29T09:49:24;4.65;;;3.95;;
9222;SDS011;7557;51.698;3.942;2022-07-29T09:52:06;3.97;;;3.70;;
9222;SDS011;7557;51.698;3.942;2022-07-29T09:54:34;6.60;;;4.40;;
9222;SDS011;7557;51.698;3.942;2022-07-29T09:57:04;4.40;;;4.15;;
9222;SDS011;7557;51.698;3.942;2022-07-29T09:59:34;5.30;;;3.88;;
9222;SDS011;7557;51.698;3.942;2022-07-29T10:02:01;4.95;;;4.45;;
9222;SDS011;7557;51.698;3.942;2022-07-29T10:04:38;3.78;;;3.42;;
9222;SDS011;7557;51.698;3.942;2022-07-29T10:07:08;3.83;;;3.63;;
9222;SDS011;7557;51.698;3.942;2022-07-29T10:09:36;5.07;;;4.00;;
9222;SDS011;7557;51.698;3.942;2022-07-29T10:12:04;4.55;;;4.03;;
9222;SDS011;7557;51.698;3.942;2022-07-29T10:14:38;3.28;;;3.00;;
9222;SDS011;7557;51.698;3.942;2022-07-29T10:17:07;4.80;;;4.40;;
9222;SDS011;7557;51.698;3.942;2022-07-29T10:19:36;4.03;;;3.72;;
9222;SDS011;7557;51.698;3.942;2022-07-29T10:22:04;4.45;;;4.05;;
9222;SDS011;7557;51.698;3.942;2022-07-29T10:24:35;5.40;;;3.70;;
9222;SDS011;7557;51.698;3.942;2022-07-29T10:27:04;6.32;;;4.40;;
9222;SDS011;7557;51.698;3.942;2022-07-29T10:29:33;5.72;;;3.75;;
9222;SDS011;7557;51.698;3.942;2022-07-29T10:32:13;4.32;;;3.92;;
9222;SDS011;7557;51.698;3.942;2022-07-29T10:35:02;3.70;;;3.40;;
9222;SDS011;7557;51.698;3.942;2022-07-29T10:37:45;3.38;;;2.55;;
9222;SDS011;7557;51.698;3.942;2022-07-29T10:40:27;2.63;;;2.45;;
9222;SDS011;7557;51.698;3.942;2022-07-29T10:43:21;2.97;;;2.70;;
9222;SDS011;7557;51.698;3.942;2022-07-29T10:45:54;2.85;;;2.65;;
9222;SDS011;7557;51.698;3.942;2022-07-29T10:48:24;3.58;;;2.53;;
9222;SDS011;7557;51.698;3.942;2022-07-29T10:50:52;2.85;;;2.65;;
9222;SDS011;7557;51.698;3.942;2022-07-29T10:53:24;8.02;;;2.63;;
9222;SDS011;7557;51.698;3.942;2022-07-29T10:56:24;3.38;;;2.55;;
9222;SDS011;7557;51.698;3.942;2022-07-29T11:01:52;3.25;;;2.65;;
9222;SDS011;7557;51.698;3.942;2022-07-29T11:07:24;2.75;;;2.55;;
9222;SDS011;7557;51.698;3.942;2022-07-29T11:12:48;2.88;;;2.67;;
9222;SDS011;7557;51.698;3.942;2022-07-29T11:15:16;3.17;;;2.97;;
9222;SDS011;7557;51.698;3.942;2022-07-29T11:18:05;4.93;;;2.72;;
9222;SDS011;7557;51.698;3.942;2022-07-29T11:20:33;2.60;;;2.40;;
9222;SDS011;7557;51.698;3.942;2022-07-29T11:23:17;3.35;;;2.35;;
9222;SDS011;7557;51.698;3.942;2022-07-29T11:28:54;2.95;;;2.67;;
9222;SDS011;7557;51.698;3.942;2022-07-29T11:31:34;3.70;;;2.90;;
9222;SDS011;7557;51.698;3.942;2022-07-29T11:34:20;3.03;;;2.80;;
9222;SDS011;7557;51.698;3.942;2022-07-29T11:39:41;2.97;;;2.08;;
9222;SDS011;7557;51.698;3.942;2022-07-29T11:45:11;2.13;;;1.95;;
9222;SDS011;7557;51.698;3.942;2022-07-29T11:47:47;3.08;;;2.08;;
9222;SDS011;7557;51.698;3.942;2022-07-29T11:50:17;2.58;;;1.90;;
9222;SDS011;7557;51.698;3.942;2022-07-29T11:52:53;4.43;;;1.85;;
9222;SDS011;7557;51.698;3.942;2022-07-29T11:55:22;2.28;;;2.08;;
9222;SDS011;7557;51.698;3.942;2022-07-29T11:57:50;4.68;;;2.05;;
9222;SDS011;7557;51.698;3.942;2022-07-29T12:00:27;2.72;;;2.35;;
9222;SDS011;7557;51.698;3.942;2022-07-29T12:02:57;2.20;;;2.00;;
9222;SDS011;7557;51.698;3.942;2022-07-29T12:05:33;3.50;;;1.92;;
9222;SDS011;7557;51.698;3.942;2022-07-29T12:08:06;2.50;;;2.30;;
9222;SDS011;7557;51.698;3.942;2022-07-29T12:10:35;3.17;;;1.75;;
9222;SDS011;7557;51.698;3.942;2022-07-29T12:13:02;3.30;;;1.98;;
9222;SDS011;7557;51.698;3.942;2022-07-29T12:15:31;3.08;;;2.45;;
9222;SDS011;7557;51.698;3.942;2022-07-29T12:17:59;3.20;;;2.10;;
9222;SDS011;7557;51.698;3.942;2022-07-29T12:20:36;2.53;;;2.25;;
9222;SDS011;7557;51.698;3.942;2022-07-29T12:23:04;3.80;;;2.38;;
9222;SDS011;7557;51.698;3.942;2022-07-29T12:25:34;4.85;;;2.38;;
9222;SDS011;7557;51.698;3.942;2022-07-29T12:28:02;5.43;;;2.33;;
9222;SDS011;7557;51.698;3.942;2022-07-29T12:30:40;4.22;;;2.13;;
9222;SDS011;7557;51.698;3.942;2022-07-29T12:33:12;3.58;;;2.30;;
9222;SDS011;7557;51.698;3.942;2022-07-29T12:35:41;2.83;;;2.10;;
9222;SDS011;7557;51.698;3.942;2022-07-29T12:38:10;4.22;;;2.10;;
9222;SDS011;7557;51.698;3.942;2022-07-29T12:40:38;2.40;;;1.90;;
9222;SDS011;7557;51.698;3.942;2022-07-29T12:43:07;5.60;;;1.80;;
9222;SDS011;7557;51.698;3.942;2022-07-29T12:45:36;5.05;;;2.00;;
9222;SDS011;7557;51.698;3.942;2022-07-29T12:48:05;3.78;;;1.90;;
9222;SDS011;7557;51.698;3.942;2022-07-29T12:50:35;4.07;;;2.13;;
9222;SDS011;7557;51.698;3.942;2022-07-29T12:53:09;5.28;;;2.20;;
9222;SDS011;7557;51.698;3.942;2022-07-29T12:55:39;2.28;;;1.90;;
9222;SDS011;7557;51.698;3.942;2022-07-29T12:58:14;2.40;;;1.85;;
9222;SDS011;7557;51.698;3.942;2022-07-29T13:00:59;2.38;;;1.70;;
9222;SDS011;7557;51.698;3.942;2022-07-29T13:03:42;1.65;;;1.50;;
9222;SDS011;7557;51.698;3.942;2022-07-29T13:06:30;4.30;;;1.80;;
9222;SDS011;7557;51.698;3.942;2022-07-29T13:09:00;2.25;;;1.50;;
9222;SDS011;7557;51.698;3.942;2022-07-29T13:11:33;5.72;;;1.70;;
9222;SDS011;7557;51.698;3.942;2022-07-29T13:14:01;1.85;;;1.75;;
9222;SDS011;7557;51.698;3.942;2022-07-29T13:16:29;2.13;;;1.63;;
9222;SDS011;7557;51.698;3.942;2022-07-29T13:19:05;3.63;;;1.80;;
9222;SDS011;7557;51.698;3.942;2022-07-29T13:21:33;2.40;;;1.92;;
9222;SDS011;7557;51.698;3.942;2022-07-29T13:24:01;2.97;;;1.60;;
9222;SDS011;7557;51.698;3.942;2022-07-29T13:26:29;1.75;;;1.55;;
9222;SDS011;7557;51.698;3.942;2022-07-29T13:28:56;1.73;;;1.63;;
9222;SDS011;7557;51.698;3.942;2022-07-29T13:31:23;2.50;;;1.83;;
9222;SDS011;7557;51.698;3.942;2022-07-29T13:33:50;1.85;;;1.58;;
9222;SDS011;7557;51.698;3.942;2022-07-29T13:36:19;2.78;;;2.00;;
9222;SDS011;7557;51.698;3.942;2022-07-29T13:38:46;2.70;;;1.80;;
9222;SDS011;7557;51.698;3.942;2022-07-29T13:41:13;2.88;;;1.75;;
9222;SDS011;7557;51.698;3.942;2022-07-29T13:43:41;2.55;;;2.00;;
9222;SDS011;7557;51.698;3.942;2022-07-29T13:46:08;2.38;;;2.10;;
9222;SDS011;7557;51.698;3.942;2022-07-29T13:48:35;1.40;;;1.40;;
9222;SDS011;7557;51.698;3.942;2022-07-29T13:51:02;1.50;;;1.40;;
9222;SDS011;7557;51.698;3.942;2022-07-29T13:53:31;3.90;;;1.80;;
9222;SDS011;7557;51.698;3.942;2022-07-29T13:55:58;5.35;;;2.30;;
9222;SDS011;7557;51.698;3.942;2022-07-29T13:58:25;3.40;;;2.13;;
9222;SDS011;7557;51.698;3.942;2022-07-29T14:00:52;2.00;;;1.70;;
9222;SDS011;7557;51.698;3.942;2022-07-29T14:03:20;1.63;;;1.52;;
9222;SDS011;7557;51.698;3.942;2022-07-29T14:05:47;2.35;;;1.65;;
9222;SDS011;7557;51.698;3.942;2022-07-29T14:08:14;2.40;;;1.52;;
9222;SDS011;7557;51.698;3.942;2022-07-29T14:10:43;3.35;;;2.08;;
9222;SDS011;7557;51.698;3.942;2022-07-29T14:13:10;4.28;;;2.22;;
9222;SDS011;7557;51.698;3.942;2022-07-29T14:15:38;2.95;;;1.98;;
9222;SDS011;7557;51.698;3.942;2022-07-29T14:18:05;2.75;;;1.95;;
9222;SDS011;7557;51.698;3.942;2022-07-29T14:20:32;3.50;;;1.90;;
9222;SDS011;7557;51.698;3.942;2022-07-29T14:23:00;3.08;;;2.08;;
9222;SDS011;7557;51.698;3.942;2022-07-29T14:25:27;3.25;;;1.67;;
9222;SDS011;7557;51.698;3.942;2022-07-29T14:27:56;2.00;;;1.90;;
9222;SDS011;7557;51.698;3.942;2022-07-29T14:30:23;3.50;;;2.13;;
9222;SDS011;7557;51.698;3.942;2022-07-29T14:32:50;7.38;;;1.88;;
9222;SDS011;7557;51.698;3.942;2022-07-29T14:35:17;4.15;;;1.70;;
9222;SDS011;7557;51.698;3.942;2022-07-29T14:37:44;2.38;;;2.15;;
9222;SDS011;7557;51.698;3.942;2022-07-29T14:40:11;2.55;;;1.70;;
9222;SDS011;7557;51.698;3.942;2022-07-29T14:42:39;2.63;;;2.13;;
9222;SDS011;7557;51.698;3.942;2022-07-29T14:45:08;2.10;;;1.83;;
9222;SDS011;7557;51.698;3.942;2022-07-29T14:47:36;5.10;;;2.20;;
9222;SDS011;7557;51.698;3.942;2022-07-29T14:50:05;2.10;;;1.90;;
9222;SDS011;7557;51.698;3.942;2022-07-29T14:52:33;2.15;;;1.70;;
9222;SDS011;7557;51.698;3.942;2022-07-29T14:55:01;2.60;;;1.75;;
9222;SDS011;7557;51.698;3.942;2022-07-29T14:57:28;1.83;;;1.60;;
9222;SDS011;7557;51.698;3.942;2022-07-29T14:59:55;1.70;;;1.60;;
9222;SDS011;7557;51.698;3.942;2022-07-29T15:02:24;3.22;;;1.70;;
9222;SDS011;7557;51.698;3.942;2022-07-29T15:04:51;3.45;;;1.95;;
9222;SDS011;7557;51.698;3.942;2022-07-29T15:07:18;2.28;;;1.95;;
9222;SDS011;7557;51.698;3.942;2022-07-29T15:09:46;2.10;;;1.80;;
9222;SDS011;7557;51.698;3.942;2022-07-29T15:12:13;3.55;;;1.75;;
9222;SDS011;7557;51.698;3.942;2022-07-29T15:14:40;5.15;;;1.90;;
9222;SDS011;7557;51.698;3.942;2022-07-29T15:17:07;3.10;;;1.58;;
9222;SDS011;7557;51.698;3.942;2022-07-29T15:19:36;1.88;;;1.77;;
9222;SDS011;7557;51.698;3.942;2022-07-29T15:22:03;3.53;;;2.22;;
9222;SDS011;7557;51.698;3.942;2022-07-29T15:24:30;2.35;;;2.10;;
9222;SDS011;7557;51.698;3.942;2022-07-29T15:26:58;3.22;;;2.13;;
9222;SDS011;7557;51.698;3.942;2022-07-29T15:29:25;4.05;;;2.38;;
9222;SDS011;7557;51.698;3.942;2022-07-29T15:31:52;2.88;;;1.85;;
9222;SDS011;7557;51.698;3.942;2022-07-29T15:34:19;4.20;;;2.20;;
9222;SDS011;7557;51.698;3.942;2022-07-29T15:36:50;3.65;;;2.28;;
9222;SDS011;7557;51.698;3.942;2022-07-29T15:39:17;3.10;;;1.67;;
9222;SDS011;7557;51.698;3.942;2022-07-29T15:41:44;2.35;;;1.80;;
9222;SDS011;7557;51.698;3.942;2022-07-29T15:44:11;2.75;;;1.90;;
9222;SDS011;7557;51.698;3.942;2022-07-29T15:46:39;3.65;;;2.10;;
9222;SDS011;7557;51.698;3.942;2022-07-29T15:49:24;3.38;;;1.63;;
9222;SDS011;7557;51.698;3.942;2022-07-29T15:51:57;2.08;;;1.50;;